sensor_id;sensor_type;location;lat;lon;timestamp;P1;durP1;ratioP1;P2;durP2;ratioP2
43008;SDS011;28634;45.454;11.106;2022-09-23T00:01:12;1.35;;;0.98;;
43008;SDS011;28634;45.454;11.106;2022-09-23T00:03:40;1.50;;;1.10;;
43008;SDS011;28634;45.454;11.106;2022-09-23T00:06:12;1.73;;;1.10;;
43008;SDS011;28634;45.454;11.106;2022-09-23T00:08:41;1.23;;;0.88;;
43008;SDS011;28634;45.454;11.106;2022-09-23T00:11:13;2.05;;;0.93;;
43008;SDS011;28634;45.454;11.106;2022-09-23T00:13:43;1.50;;;1.10;;
43008;SDS011;28634;45.454;11.106;2022-09-23T00:16:13;1.55;;;1.05;;
43008;SDS011;28634;45.454;11.106;2022-09-23T00:18:41;2.05;;;1.00;;
43008;SDS011;28634;45.454;11.106;2022-09-23T00:21:10;1.23;;;0.90;;
43008;SDS011;28634;45.454;11.106;2022-09-23T00:23:38;1.20;;;0.80;;
43008;SDS011;28634;45.454;11.106;2022-09-23T00:26:07;1.77;;;0.93;;
43008;SDS011;28634;45.454;11.106;2022-09-23T00:28:36;1.15;;;0.90;;
43008;SDS011;28634;45.454;11.106;2022-09-23T00:31:14;1.67;;;1.02;;
43008;SDS011;28634;45.454;11.106;2022-09-23T00:33:43;1.40;;;1.00;;
43008;SDS011;28634;45.454;11.106;2022-09-23T00:36:11;1.20;;;0.90;;
43008;SDS011;28634;45.454;11.106;2022-09-23T00:38:42;1.17;;;0.88;;
43008;SDS011;28634;45.454;11.106;2022-09-23T00:41:10;1.55;;;1.10;;
43008;SDS011;28634;45.454;11.106;2022-09-23T00:46:15;2.17;;;1.10;;
43008;SDS011;28634;45.454;11.106;2022-09-23T00:48:46;1.70;;;0.95;;
43008;SDS011;28634;45.454;11.106;2022-09-23T00:51:15;1.25;;;1.00;;
43008;SDS011;28634;45.454;11.106;2022-09-23T00:53:47;1.50;;;1.10;;
43008;SDS011;28634;45.454;11.106;2022-09-23T00:56:16;1.40;;;0.90;;
43008;SDS011;28634;45.454;11.106;2022-09-23T00:58:46;1.48;;;0.95;;
43008;SDS011;28634;45.454;11.106;2022-09-23T01:01:15;0.93;;;0.82;;
43008;SDS011;28634;45.454;11.106;2022-09-23T01:03:43;1.00;;;0.90;;
43008;SDS011;28634;45.454;11.106;2022-09-23T01:06:12;2.25;;;1.10;;
43008;SDS011;28634;45.454;11.106;2022-09-23T01:08:39;2.17;;;1.00;;
43008;SDS011;28634;45.454;11.106;2022-09-23T01:14:09;1.40;;;0.90;;
43008;SDS011;28634;45.454;11.106;2022-09-23T01:16:57;1.55;;;1.00;;
43008;SDS011;28634;45.454;11.106;2022-09-23T01:19:41;1.17;;;0.90;;
43008;SDS011;28634;45.454;11.106;2022-09-23T01:25:26;0.90;;;0.70;;
43008;SDS011;28634;45.454;11.106;2022-09-23T01:28:37;1.13;;;0.90;;
43008;SDS011;28634;45.454;11.106;2022-09-23T01:31:36;2.35;;;0.90;;
43008;SDS011;28634;45.454;11.106;2022-09-23T01:34:30;1.70;;;0.90;;
43008;SDS011;28634;45.454;11.106;2022-09-23T01:37:57;1.58;;;1.08;;
43008;SDS011;28634;45.454;11.106;2022-09-23T01:40:39;1.73;;;1.05;;
43008;SDS011;28634;45.454;11.106;2022-09-23T01:46:19;1.30;;;0.95;;
43008;SDS011;28634;45.454;11.106;2022-09-23T01:48:55;1.30;;;1.00;;
43008;SDS011;28634;45.454;11.106;2022-09-23T01:51:27;1.55;;;0.90;;
43008;SDS011;28634;45.454;11.106;2022-09-23T01:56:35;1.40;;;1.00;;
43008;SDS011;28634;45.454;11.106;2022-09-23T01:59:14;1.42;;;0.90;;
43008;SDS011;28634;45.454;11.106;2022-09-23T02:02:00;1.30;;;1.00;;
43008;SDS011;28634;45.454;11.106;2022-09-23T02:04:44;1.67;;;0.90;;
43008;SDS011;28634;45.454;11.106;2022-09-23T02:07:18;1.30;;;1.00;;
43008;SDS011;28634;45.454;11.106;2022-09-23T02:12:32;2.25;;;1.17;;
43008;SDS011;28634;45.454;11.106;2022-09-23T02:15:10;1.50;;;1.00;;
43008;SDS011;28634;45.454;11.106;2022-09-23T02:17:44;1.98;;;1.20;;
43008;SDS011;28634;45.454;11.106;2022-09-23T02:20:29;1.38;;;0.93;;
43008;SDS011;28634;45.454;11.106;2022-09-23T02:23:04;1.23;;;0.82;;
43008;SDS011;28634;45.454;11.106;2022-09-23T02:28:28;1.13;;;0.80;;
43008;SDS011;28634;45.454;11.106;2022-09-23T02:31:08;2.08;;;1.00;;
43008;SDS011;28634;45.454;11.106;2022-09-23T02:33:48;1.30;;;0.90;;
43008;SDS011;28634;45.454;11.106;2022-09-23T02:36:32;1.38;;;0.93;;
43008;SDS011;28634;45.454;11.106;2022-09-23T02:39:07;1.52;;;0.95;;
43008;SDS011;28634;45.454;11.106;2022-09-23T02:44:16;1.25;;;1.00;;
43008;SDS011;28634;45.454;11.106;2022-09-23T02:46:45;1.23;;;0.90;;
43008;SDS011;28634;45.454;11.106;2022-09-23T02:49:13;1.88;;;1.08;;
43008;SDS011;28634;45.454;11.106;2022-09-23T02:51:44;1.17;;;0.93;;
43008;SDS011;28634;45.454;11.106;2022-09-23T02:54:12;1.20;;;0.80;;
43008;SDS011;28634;45.454;11.106;2022-09-23T02:56:43;1.70;;;1.00;;
43008;SDS011;28634;45.454;11.106;2022-09-23T02:59:10;2.50;;;1.00;;
43008;SDS011;28634;45.454;11.106;2022-09-23T03:04:19;1.65;;;0.90;;
43008;SDS011;28634;45.454;11.106;2022-09-23T03:07:20;1.17;;;0.93;;
43008;SDS011;28634;45.454;11.106;2022-09-23T03:10:04;2.22;;;0.95;;
43008;SDS011;28634;45.454;11.106;2022-09-23T03:12:41;1.42;;;0.90;;
43008;SDS011;28634;45.454;11.106;2022-09-23T03:15:19;0.82;;;0.77;;
43008;SDS011;28634;45.454;11.106;2022-09-23T03:18:14;1.40;;;0.95;;
43008;SDS011;28634;45.454;11.106;2022-09-23T03:20:50;1.33;;;0.95;;
43008;SDS011;28634;45.454;11.106;2022-09-23T03:23:30;1.38;;;0.90;;
43008;SDS011;28634;45.454;11.106;2022-09-23T03:26:06;1.48;;;0.90;;
43008;SDS011;28634;45.454;11.106;2022-09-23T03:28:38;1.42;;;1.00;;
43008;SDS011;28634;45.454;11.106;2022-09-23T03:31:09;1.45;;;0.80;;
43008;SDS011;28634;45.454;11.106;2022-09-23T03:33:39;2.25;;;0.88;;
43008;SDS011;28634;45.454;11.106;2022-09-23T03:36:30;1.88;;;1.15;;
43008;SDS011;28634;45.454;11.106;2022-09-23T03:39:25;1.23;;;0.90;;
43008;SDS011;28634;45.454;11.106;2022-09-23T03:42:01;1.40;;;1.00;;
43008;SDS011;28634;45.454;11.106;2022-09-23T03:44:34;2.63;;;0.98;;
43008;SDS011;28634;45.454;11.106;2022-09-23T03:47:04;1.30;;;0.90;;
43008;SDS011;28634;45.454;11.106;2022-09-23T03:49:33;2.65;;;1.00;;
43008;SDS011;28634;45.454;11.106;2022-09-23T03:52:02;1.13;;;0.80;;
43008;SDS011;28634;45.454;11.106;2022-09-23T03:54:29;1.30;;;0.98;;
43008;SDS011;28634;45.454;11.106;2022-09-23T03:56:57;1.00;;;0.90;;
43008;SDS011;28634;45.454;11.106;2022-09-23T03:59:25;0.82;;;0.73;;
43008;SDS011;28634;45.454;11.106;2022-09-23T04:01:52;1.73;;;0.98;;
43008;SDS011;28634;45.454;11.106;2022-09-23T04:04:20;1.25;;;0.80;;
43008;SDS011;28634;45.454;11.106;2022-09-23T04:06:48;0.80;;;0.70;;
43008;SDS011;28634;45.454;11.106;2022-09-23T04:09:15;2.35;;;0.90;;
43008;SDS011;28634;45.454;11.106;2022-09-23T04:11:42;1.30;;;0.80;;
43008;SDS011;28634;45.454;11.106;2022-09-23T04:14:09;0.80;;;0.77;;
43008;SDS011;28634;45.454;11.106;2022-09-23T04:16:37;1.20;;;0.80;;
43008;SDS011;28634;45.454;11.106;2022-09-23T04:19:04;1.35;;;0.90;;
43008;SDS011;28634;45.454;11.106;2022-09-23T04:21:36;1.40;;;0.88;;
43008;SDS011;28634;45.454;11.106;2022-09-23T04:24:04;0.95;;;0.70;;
43008;SDS011;28634;45.454;11.106;2022-09-23T04:26:32;1.48;;;0.80;;
43008;SDS011;28634;45.454;11.106;2022-09-23T04:28:59;1.38;;;0.93;;
43008;SDS011;28634;45.454;11.106;2022-09-23T04:31:27;1.13;;;0.63;;
43008;SDS011;28634;45.454;11.106;2022-09-23T04:33:54;1.77;;;0.75;;
43008;SDS011;28634;45.454;11.106;2022-09-23T04:36:21;1.33;;;0.90;;
43008;SDS011;28634;45.454;11.106;2022-09-23T04:38:48;1.17;;;0.85;;
43008;SDS011;28634;45.454;11.106;2022-09-23T04:41:16;1.10;;;0.80;;
43008;SDS011;28634;45.454;11.106;2022-09-23T04:43:44;1.77;;;1.00;;
43008;SDS011;28634;45.454;11.106;2022-09-23T04:46:12;4.50;;;1.10;;
43008;SDS011;28634;45.454;11.106;2022-09-23T04:48:40;1.02;;;0.90;;
43008;SDS011;28634;45.454;11.106;2022-09-23T04:51:09;1.88;;;0.80;;
43008;SDS011;28634;45.454;11.106;2022-09-23T04:53:39;1.33;;;1.00;;
43008;SDS011;28634;45.454;11.106;2022-09-23T04:56:08;3.33;;;1.45;;
43008;SDS011;28634;45.454;11.106;2022-09-23T04:58:37;2.78;;;1.17;;
43008;SDS011;28634;45.454;11.106;2022-09-23T05:01:09;1.42;;;1.02;;
43008;SDS011;28634;45.454;11.106;2022-09-23T05:03:42;1.88;;;1.00;;
43008;SDS011;28634;45.454;11.106;2022-09-23T05:06:11;2.80;;;1.15;;
43008;SDS011;28634;45.454;11.106;2022-09-23T05:08:40;1.70;;;0.90;;
43008;SDS011;28634;45.454;11.106;2022-09-23T05:11:11;1.50;;;0.90;;
43008;SDS011;28634;45.454;11.106;2022-09-23T05:13:38;1.55;;;1.15;;
43008;SDS011;28634;45.454;11.106;2022-09-23T05:16:06;1.95;;;1.30;;
43008;SDS011;28634;45.454;11.106;2022-09-23T05:18:38;1.63;;;1.20;;
43008;SDS011;28634;45.454;11.106;2022-09-23T05:21:09;1.50;;;1.20;;
43008;SDS011;28634;45.454;11.106;2022-09-23T05:23:41;1.38;;;1.10;;
43008;SDS011;28634;45.454;11.106;2022-09-23T05:26:12;2.15;;;1.30;;
43008;SDS011;28634;45.454;11.106;2022-09-23T05:28:39;2.53;;;1.25;;
43008;SDS011;28634;45.454;11.106;2022-09-23T05:31:10;2.40;;;1.40;;
43008;SDS011;28634;45.454;11.106;2022-09-23T05:33:47;3.20;;;1.30;;
43008;SDS011;28634;45.454;11.106;2022-09-23T05:36:17;3.80;;;1.40;;
43008;SDS011;28634;45.454;11.106;2022-09-23T05:38:48;2.80;;;1.40;;
43008;SDS011;28634;45.454;11.106;2022-09-23T05:41:17;3.03;;;1.30;;
43008;SDS011;28634;45.454;11.106;2022-09-23T05:43:48;2.80;;;1.27;;
43008;SDS011;28634;45.454;11.106;2022-09-23T05:46:19;2.10;;;1.15;;
43008;SDS011;28634;45.454;11.106;2022-09-23T05:48:51;2.55;;;1.50;;
43008;SDS011;28634;45.454;11.106;2022-09-23T05:51:25;2.78;;;1.40;;
43008;SDS011;28634;45.454;11.106;2022-09-23T05:53:56;2.55;;;1.42;;
43008;SDS011;28634;45.454;11.106;2022-09-23T05:56:25;1.73;;;1.10;;
43008;SDS011;28634;45.454;11.106;2022-09-23T05:58:54;2.22;;;1.23;;
43008;SDS011;28634;45.454;11.106;2022-09-23T06:01:23;2.78;;;1.20;;
43008;SDS011;28634;45.454;11.106;2022-09-23T06:03:53;2.92;;;1.40;;
43008;SDS011;28634;45.454;11.106;2022-09-23T06:06:23;2.33;;;1.27;;
43008;SDS011;28634;45.454;11.106;2022-09-23T06:08:55;2.20;;;1.08;;
43008;SDS011;28634;45.454;11.106;2022-09-23T06:11:25;2.75;;;1.40;;
43008;SDS011;28634;45.454;11.106;2022-09-23T06:13:56;2.88;;;1.10;;
43008;SDS011;28634;45.454;11.106;2022-09-23T06:18:55;2.22;;;1.25;;
43008;SDS011;28634;45.454;11.106;2022-09-23T06:21:28;2.15;;;1.38;;
43008;SDS011;28634;45.454;11.106;2022-09-23T06:23:56;3.55;;;1.60;;
43008;SDS011;28634;45.454;11.106;2022-09-23T06:26:25;4.93;;;1.60;;
43008;SDS011;28634;45.454;11.106;2022-09-23T06:28:57;2.28;;;1.33;;
43008;SDS011;28634;45.454;11.106;2022-09-23T06:31:24;2.05;;;1.10;;
43008;SDS011;28634;45.454;11.106;2022-09-23T06:33:51;2.33;;;1.10;;
43008;SDS011;28634;45.454;11.106;2022-09-23T06:36:32;2.50;;;1.13;;
43008;SDS011;28634;45.454;11.106;2022-09-23T06:39:09;1.83;;;0.93;;
43008;SDS011;28634;45.454;11.106;2022-09-23T06:41:36;1.85;;;1.10;;
43008;SDS011;28634;45.454;11.106;2022-09-23T06:44:04;1.95;;;1.23;;
43008;SDS011;28634;45.454;11.106;2022-09-23T06:46:32;3.25;;;1.25;;
43008;SDS011;28634;45.454;11.106;2022-09-23T06:48:59;1.60;;;1.13;;
43008;SDS011;28634;45.454;11.106;2022-09-23T06:51:28;2.67;;;1.20;;
43008;SDS011;28634;45.454;11.106;2022-09-23T06:53:55;2.00;;;1.48;;
43008;SDS011;28634;45.454;11.106;2022-09-23T06:56:23;1.50;;;1.10;;
43008;SDS011;28634;45.454;11.106;2022-09-23T06:59:04;2.40;;;1.05;;
43008;SDS011;28634;45.454;11.106;2022-09-23T07:01:31;2.35;;;1.30;;
43008;SDS011;28634;45.454;11.106;2022-09-23T07:03:59;2.30;;;1.10;;
43008;SDS011;28634;45.454;11.106;2022-09-23T07:06:27;5.18;;;1.58;;
43008;SDS011;28634;45.454;11.106;2022-09-23T07:08:54;9.30;;;1.80;;
43008;SDS011;28634;45.454;11.106;2022-09-23T07:11:21;7.30;;;1.42;;
43008;SDS011;28634;45.454;11.106;2022-09-23T07:13:48;6.18;;;1.65;;
43008;SDS011;28634;45.454;11.106;2022-09-23T07:16:16;5.60;;;2.13;;
43008;SDS011;28634;45.454;11.106;2022-09-23T07:18:43;3.53;;;1.55;;
43008;SDS011;28634;45.454;11.106;2022-09-23T07:21:15;2.53;;;1.40;;
43008;SDS011;28634;45.454;11.106;2022-09-23T07:23:44;4.70;;;1.80;;
43008;SDS011;28634;45.454;11.106;2022-09-23T07:26:13;4.45;;;1.42;;
43008;SDS011;28634;45.454;11.106;2022-09-23T07:28:41;3.53;;;1.40;;
43008;SDS011;28634;45.454;11.106;2022-09-23T07:31:10;3.33;;;1.50;;
43008;SDS011;28634;45.454;11.106;2022-09-23T07:33:44;2.63;;;1.45;;
43008;SDS011;28634;45.454;11.106;2022-09-23T07:36:13;5.15;;;1.90;;
43008;SDS011;28634;45.454;11.106;2022-09-23T07:38:42;4.72;;;2.08;;
43008;SDS011;28634;45.454;11.106;2022-09-23T07:41:12;2.50;;;1.50;;
43008;SDS011;28634;45.454;11.106;2022-09-23T07:43:41;4.95;;;1.55;;
43008;SDS011;28634;45.454;11.106;2022-09-23T07:46:14;3.45;;;2.05;;
43008;SDS011;28634;45.454;11.106;2022-09-23T07:48:43;7.30;;;3.58;;
43008;SDS011;28634;45.454;11.106;2022-09-23T07:51:12;9.02;;;2.70;;
43008;SDS011;28634;45.454;11.106;2022-09-23T07:53:47;8.88;;;2.80;;
43008;SDS011;28634;45.454;11.106;2022-09-23T07:56:18;5.78;;;2.60;;
43008;SDS011;28634;45.454;11.106;2022-09-23T07:58:47;13.07;;;2.50;;
43008;SDS011;28634;45.454;11.106;2022-09-23T08:01:30;11.77;;;2.95;;
43008;SDS011;28634;45.454;11.106;2022-09-23T08:04:04;9.48;;;2.70;;
43008;SDS011;28634;45.454;11.106;2022-09-23T08:06:33;8.43;;;2.75;;
43008;SDS011;28634;45.454;11.106;2022-09-23T08:09:01;6.90;;;2.92;;
43008;SDS011;28634;45.454;11.106;2022-09-23T08:11:28;11.23;;;3.10;;
43008;SDS011;28634;45.454;11.106;2022-09-23T08:13:55;8.93;;;3.60;;
43008;SDS011;28634;45.454;11.106;2022-09-23T08:16:23;10.23;;;3.30;;
43008;SDS011;28634;45.454;11.106;2022-09-23T08:18:50;10.98;;;2.95;;
43008;SDS011;28634;45.454;11.106;2022-09-23T08:21:20;15.30;;;3.65;;
43008;SDS011;28634;45.454;11.106;2022-09-23T08:23:48;14.27;;;3.42;;
43008;SDS011;28634;45.454;11.106;2022-09-23T08:26:16;12.02;;;3.28;;
43008;SDS011;28634;45.454;11.106;2022-09-23T08:28:47;16.52;;;3.88;;
43008;SDS011;28634;45.454;11.106;2022-09-23T08:31:14;10.27;;;4.60;;
43008;SDS011;28634;45.454;11.106;2022-09-23T08:33:42;9.13;;;5.18;;
43008;SDS011;28634;45.454;11.106;2022-09-23T08:36:09;10.70;;;4.72;;
43008;SDS011;28634;45.454;11.106;2022-09-23T08:38:36;9.10;;;4.70;;
43008;SDS011;28634;45.454;11.106;2022-09-23T08:41:10;11.05;;;5.10;;
43008;SDS011;28634;45.454;11.106;2022-09-23T08:44:44;15.55;;;5.30;;
43008;SDS011;28634;45.454;11.106;2022-09-23T08:47:21;7.72;;;4.80;;
43008;SDS011;28634;45.454;11.106;2022-09-23T08:55:41;9.68;;;4.40;;
43008;SDS011;28634;45.454;11.106;2022-09-23T09:03:38;12.45;;;5.05;;
43008;SDS011;28634;45.454;11.106;2022-09-23T09:06:15;9.50;;;3.85;;
43008;SDS011;28634;45.454;11.106;2022-09-23T09:11:20;10.98;;;3.45;;
43008;SDS011;28634;45.454;11.106;2022-09-23T09:13:56;9.93;;;3.33;;
43008;SDS011;28634;45.454;11.106;2022-09-23T09:19:29;11.98;;;3.38;;
43008;SDS011;28634;45.454;11.106;2022-09-23T09:23:02;5.43;;;2.45;;
43008;SDS011;28634;45.454;11.106;2022-09-23T09:25:33;4.35;;;2.20;;
43008;SDS011;28634;45.454;11.106;2022-09-23T09:28:17;5.63;;;2.50;;
43008;SDS011;28634;45.454;11.106;2022-09-23T09:31:04;5.20;;;2.47;;
43008;SDS011;28634;45.454;11.106;2022-09-23T09:34:04;4.50;;;2.55;;
43008;SDS011;28634;45.454;11.106;2022-09-23T09:36:39;3.60;;;2.67;;
43008;SDS011;28634;45.454;11.106;2022-09-23T09:39:11;3.33;;;2.60;;
43008;SDS011;28634;45.454;11.106;2022-09-23T09:41:44;4.22;;;2.53;;
43008;SDS011;28634;45.454;11.106;2022-09-23T09:44:18;3.88;;;2.33;;
43008;SDS011;28634;45.454;11.106;2022-09-23T09:46:55;3.40;;;1.90;;
43008;SDS011;28634;45.454;11.106;2022-09-23T09:49:47;4.57;;;2.30;;
43008;SDS011;28634;45.454;11.106;2022-09-23T09:52:22;5.13;;;2.88;;
43008;SDS011;28634;45.454;11.106;2022-09-23T09:54:52;8.48;;;2.88;;
43008;SDS011;28634;45.454;11.106;2022-09-23T09:57:28;4.65;;;2.53;;
43008;SDS011;28634;45.454;11.106;2022-09-23T10:00:17;4.32;;;2.70;;
43008;SDS011;28634;45.454;11.106;2022-09-23T10:02:54;3.70;;;2.92;;
43008;SDS011;28634;45.454;11.106;2022-09-23T10:11:01;5.13;;;3.15;;
43008;SDS011;28634;45.454;11.106;2022-09-23T10:13:40;5.88;;;2.60;;
43008;SDS011;28634;45.454;11.106;2022-09-23T10:16:26;4.05;;;3.17;;
43008;SDS011;28634;45.454;11.106;2022-09-23T10:18:53;6.20;;;3.50;;
43008;SDS011;28634;45.454;11.106;2022-09-23T10:21:22;4.32;;;3.17;;
43008;SDS011;28634;45.454;11.106;2022-09-23T10:23:54;4.28;;;3.50;;
43008;SDS011;28634;45.454;11.106;2022-09-23T10:26:31;4.00;;;3.28;;
43008;SDS011;28634;45.454;11.106;2022-09-23T10:29:02;7.40;;;3.67;;
43008;SDS011;28634;45.454;11.106;2022-09-23T10:32:11;4.18;;;3.10;;
43008;SDS011;28634;45.454;11.106;2022-09-23T10:34:43;5.60;;;3.50;;
43008;SDS011;28634;45.454;11.106;2022-09-23T10:37:16;5.35;;;3.58;;
43008;SDS011;28634;45.454;11.106;2022-09-23T10:39:50;5.38;;;3.50;;
43008;SDS011;28634;45.454;11.106;2022-09-23T10:45:58;4.97;;;3.20;;
43008;SDS011;28634;45.454;11.106;2022-09-23T10:48:59;5.82;;;2.97;;
43008;SDS011;28634;45.454;11.106;2022-09-23T10:52:10;5.22;;;3.45;;
43008;SDS011;28634;45.454;11.106;2022-09-23T11:00:22;6.45;;;4.07;;
43008;SDS011;28634;45.454;11.106;2022-09-23T11:11:15;5.95;;;3.13;;
43008;SDS011;28634;45.454;11.106;2022-09-23T11:13:49;6.97;;;3.90;;
43008;SDS011;28634;45.454;11.106;2022-09-23T11:24:32;5.40;;;3.30;;
43008;SDS011;28634;45.454;11.106;2022-09-23T11:34:16;6.38;;;3.78;;
43008;SDS011;28634;45.454;11.106;2022-09-23T11:39:21;5.57;;;3.85;;
43008;SDS011;28634;45.454;11.106;2022-09-23T11:41:53;7.50;;;3.60;;
43008;SDS011;28634;45.454;11.106;2022-09-23T11:44:26;5.25;;;3.03;;
43008;SDS011;28634;45.454;11.106;2022-09-23T11:47:05;15.35;;;4.18;;
43008;SDS011;28634;45.454;11.106;2022-09-23T11:49:50;5.57;;;3.38;;
43008;SDS011;28634;45.454;11.106;2022-09-23T11:57:52;5.50;;;3.33;;
43008;SDS011;28634;45.454;11.106;2022-09-23T12:00:28;5.65;;;3.33;;
43008;SDS011;28634;45.454;11.106;2022-09-23T12:03:05;6.88;;;4.13;;
43008;SDS011;28634;45.454;11.106;2022-09-23T12:05:43;6.18;;;3.33;;
43008;SDS011;28634;45.454;11.106;2022-09-23T12:08:25;4.00;;;3.35;;
43008;SDS011;28634;45.454;11.106;2022-09-23T12:13:51;3.30;;;2.28;;
43008;SDS011;28634;45.454;11.106;2022-09-23T12:16:43;5.80;;;3.22;;
43008;SDS011;28634;45.454;11.106;2022-09-23T12:20:19;6.80;;;3.28;;
43008;SDS011;28634;45.454;11.106;2022-09-23T12:27:54;5.32;;;3.00;;
43008;SDS011;28634;45.454;11.106;2022-09-23T12:30:52;9.07;;;3.38;;
43008;SDS011;28634;45.454;11.106;2022-09-23T12:33:23;4.70;;;3.65;;
43008;SDS011;28634;45.454;11.106;2022-09-23T12:35:52;5.40;;;3.70;;
43008;SDS011;28634;45.454;11.106;2022-09-23T12:38:40;4.75;;;3.42;;
43008;SDS011;28634;45.454;11.106;2022-09-23T12:46:37;5.55;;;4.20;;
43008;SDS011;28634;45.454;11.106;2022-09-23T12:49:23;4.90;;;4.13;;
43008;SDS011;28634;45.454;11.106;2022-09-23T12:54:40;5.18;;;3.28;;
43008;SDS011;28634;45.454;11.106;2022-09-23T13:00:13;4.28;;;3.00;;
43008;SDS011;28634;45.454;11.106;2022-09-23T13:05:57;4.15;;;3.22;;
43008;SDS011;28634;45.454;11.106;2022-09-23T13:08:45;9.75;;;4.13;;
43008;SDS011;28634;45.454;11.106;2022-09-23T13:11:24;7.68;;;4.20;;
43008;SDS011;28634;45.454;11.106;2022-09-23T13:13:54;8.93;;;4.03;;
43008;SDS011;28634;45.454;11.106;2022-09-23T13:16:32;5.93;;;3.00;;
43008;SDS011;28634;45.454;11.106;2022-09-23T13:19:03;5.78;;;3.40;;
43008;SDS011;28634;45.454;11.106;2022-09-23T13:27:03;5.88;;;2.80;;
43008;SDS011;28634;45.454;11.106;2022-09-23T13:29:45;5.05;;;3.53;;
43008;SDS011;28634;45.454;11.106;2022-09-23T13:32:19;6.38;;;3.50;;
43008;SDS011;28634;45.454;11.106;2022-09-23T13:35:34;4.82;;;3.15;;
43008;SDS011;28634;45.454;11.106;2022-09-23T13:37:45;5.15;;;3.60;;
43008;SDS011;28634;45.454;11.106;2022-09-23T13:40:47;6.25;;;2.78;;
43008;SDS011;28634;45.454;11.106;2022-09-23T13:43:24;4.15;;;3.25;;
43008;SDS011;28634;45.454;11.106;2022-09-23T13:45:57;4.05;;;3.28;;
43008;SDS011;28634;45.454;11.106;2022-09-23T13:48:26;4.75;;;3.50;;
43008;SDS011;28634;45.454;11.106;2022-09-23T13:50:54;4.38;;;3.50;;
43008;SDS011;28634;45.454;11.106;2022-09-23T13:53:25;6.32;;;3.33;;
43008;SDS011;28634;45.454;11.106;2022-09-23T13:56:17;6.63;;;3.38;;
43008;SDS011;28634;45.454;11.106;2022-09-23T13:58:45;5.30;;;3.83;;
43008;SDS011;28634;45.454;11.106;2022-09-23T14:01:19;6.40;;;3.72;;
43008;SDS011;28634;45.454;11.106;2022-09-23T14:03:47;5.63;;;3.63;;
43008;SDS011;28634;45.454;11.106;2022-09-23T14:06:14;4.57;;;3.00;;
43008;SDS011;28634;45.454;11.106;2022-09-23T14:08:45;6.15;;;3.83;;
43008;SDS011;28634;45.454;11.106;2022-09-23T14:11:16;8.20;;;3.60;;
43008;SDS011;28634;45.454;11.106;2022-09-23T14:13:49;8.27;;;3.80;;
43008;SDS011;28634;45.454;11.106;2022-09-23T14:16:20;6.13;;;3.90;;
43008;SDS011;28634;45.454;11.106;2022-09-23T14:18:57;5.88;;;4.05;;
43008;SDS011;28634;45.454;11.106;2022-09-23T14:21:32;4.25;;;3.70;;
43008;SDS011;28634;45.454;11.106;2022-09-23T14:24:21;6.18;;;4.18;;
43008;SDS011;28634;45.454;11.106;2022-09-23T14:26:50;5.75;;;3.28;;
43008;SDS011;28634;45.454;11.106;2022-09-23T14:29:27;7.45;;;4.07;;
43008;SDS011;28634;45.454;11.106;2022-09-23T14:31:58;8.57;;;4.45;;
43008;SDS011;28634;45.454;11.106;2022-09-23T14:34:45;5.47;;;3.50;;
43008;SDS011;28634;45.454;11.106;2022-09-23T14:45:51;3.47;;;2.47;;
43008;SDS011;28634;45.454;11.106;2022-09-23T14:48:27;3.53;;;2.88;;
43008;SDS011;28634;45.454;11.106;2022-09-23T14:50:59;7.63;;;2.55;;
43008;SDS011;28634;45.454;11.106;2022-09-23T14:58:40;6.32;;;2.65;;
43008;SDS011;28634;45.454;11.106;2022-09-23T15:03:51;7.07;;;3.08;;
43008;SDS011;28634;45.454;11.106;2022-09-23T15:06:20;3.10;;;1.50;;
43008;SDS011;28634;45.454;11.106;2022-09-23T15:08:48;3.20;;;2.17;;
43008;SDS011;28634;45.454;11.106;2022-09-23T15:11:20;4.07;;;1.90;;
43008;SDS011;28634;45.454;11.106;2022-09-23T15:13:48;2.78;;;1.90;;
43008;SDS011;28634;45.454;11.106;2022-09-23T15:16:25;4.85;;;2.88;;
43008;SDS011;28634;45.454;11.106;2022-09-23T15:18:54;3.45;;;2.30;;
43008;SDS011;28634;45.454;11.106;2022-09-23T15:21:23;4.03;;;1.70;;
43008;SDS011;28634;45.454;11.106;2022-09-23T15:23:55;2.80;;;1.80;;
43008;SDS011;28634;45.454;11.106;2022-09-23T15:26:24;3.95;;;2.78;;
43008;SDS011;28634;45.454;11.106;2022-09-23T15:29:12;2.85;;;2.05;;
43008;SDS011;28634;45.454;11.106;2022-09-23T15:31:39;3.33;;;1.80;;
43008;SDS011;28634;45.454;11.106;2022-09-23T15:34:08;2.53;;;1.60;;
43008;SDS011;28634;45.454;11.106;2022-09-23T15:36:36;2.15;;;1.10;;
43008;SDS011;28634;45.454;11.106;2022-09-23T15:39:04;3.22;;;2.10;;
43008;SDS011;28634;45.454;11.106;2022-09-23T15:41:35;3.38;;;2.42;;
43008;SDS011;28634;45.454;11.106;2022-09-23T15:44:20;2.13;;;1.33;;
43008;SDS011;28634;45.454;11.106;2022-09-23T15:46:54;2.38;;;1.40;;
43008;SDS011;28634;45.454;11.106;2022-09-23T15:49:30;2.17;;;1.33;;
43008;SDS011;28634;45.454;11.106;2022-09-23T15:52:02;7.35;;;4.45;;
43008;SDS011;28634;45.454;11.106;2022-09-23T15:54:31;4.82;;;4.07;;
43008;SDS011;28634;45.454;11.106;2022-09-23T15:57:20;8.30;;;4.50;;
43008;SDS011;28634;45.454;11.106;2022-09-23T16:00:00;6.45;;;4.38;;
43008;SDS011;28634;45.454;11.106;2022-09-23T16:02:32;7.30;;;4.07;;
43008;SDS011;28634;45.454;11.106;2022-09-23T16:05:28;8.38;;;5.22;;
43008;SDS011;28634;45.454;11.106;2022-09-23T16:08:02;7.05;;;2.92;;
43008;SDS011;28634;45.454;11.106;2022-09-23T16:10:35;4.57;;;1.80;;
43008;SDS011;28634;45.454;11.106;2022-09-23T16:13:09;3.40;;;1.50;;
43008;SDS011;28634;45.454;11.106;2022-09-23T16:15:38;3.53;;;1.35;;
43008;SDS011;28634;45.454;11.106;2022-09-23T16:18:06;3.10;;;1.40;;
43008;SDS011;28634;45.454;11.106;2022-09-23T16:20:37;5.05;;;1.52;;
43008;SDS011;28634;45.454;11.106;2022-09-23T16:23:11;3.67;;;1.30;;
43008;SDS011;28634;45.454;11.106;2022-09-23T16:26:01;3.55;;;1.23;;
43008;SDS011;28634;45.454;11.106;2022-09-23T16:28:31;3.38;;;1.17;;
43008;SDS011;28634;45.454;11.106;2022-09-23T16:30:59;4.75;;;1.50;;
43008;SDS011;28634;45.454;11.106;2022-09-23T16:33:26;4.70;;;1.50;;
43008;SDS011;28634;45.454;11.106;2022-09-23T16:35:53;2.97;;;1.50;;
43008;SDS011;28634;45.454;11.106;2022-09-23T16:38:21;3.15;;;1.40;;
43008;SDS011;28634;45.454;11.106;2022-09-23T16:40:49;2.42;;;1.40;;
43008;SDS011;28634;45.454;11.106;2022-09-23T16:43:16;2.80;;;1.42;;
43008;SDS011;28634;45.454;11.106;2022-09-23T16:45:45;2.50;;;1.50;;
43008;SDS011;28634;45.454;11.106;2022-09-23T16:48:12;3.97;;;1.50;;
43008;SDS011;28634;45.454;11.106;2022-09-23T16:50:40;2.25;;;1.42;;
43008;SDS011;28634;45.454;11.106;2022-09-23T16:53:11;2.83;;;1.60;;
43008;SDS011;28634;45.454;11.106;2022-09-23T16:55:38;2.70;;;1.40;;
43008;SDS011;28634;45.454;11.106;2022-09-23T16:58:10;4.22;;;1.70;;
43008;SDS011;28634;45.454;11.106;2022-09-23T17:00:37;3.28;;;1.45;;
43008;SDS011;28634;45.454;11.106;2022-09-23T17:03:25;2.90;;;1.65;;
43008;SDS011;28634;45.454;11.106;2022-09-23T17:06:10;2.80;;;1.60;;
43008;SDS011;28634;45.454;11.106;2022-09-23T17:08:41;2.83;;;1.30;;
43008;SDS011;28634;45.454;11.106;2022-09-23T17:11:08;4.15;;;1.50;;
43008;SDS011;28634;45.454;11.106;2022-09-23T17:13:39;3.33;;;1.38;;
43008;SDS011;28634;45.454;11.106;2022-09-23T17:16:08;4.82;;;1.60;;
43008;SDS011;28634;45.454;11.106;2022-09-23T17:18:37;2.75;;;1.50;;
43008;SDS011;28634;45.454;11.106;2022-09-23T17:21:05;3.58;;;1.70;;
43008;SDS011;28634;45.454;11.106;2022-09-23T17:23:33;3.08;;;1.60;;
43008;SDS011;28634;45.454;11.106;2022-09-23T17:26:03;3.30;;;1.83;;
43008;SDS011;28634;45.454;11.106;2022-09-23T17:28:30;3.72;;;1.60;;